sensor_id;sensor_type;location;lat;lon;timestamp;temperature;humidity
74458;SHT31;62896;51.032;3.712;2023-03-14T00:02:42;10.5;80
74458;SHT31;62896;51.032;3.712;2023-03-14T00:06:02;10.5;80
74458;SHT31;62896;51.032;3.712;2023-03-14T00:09:22;10.5;80
74458;SHT31;62896;51.032;3.712;2023-03-14T00:12:42;10.4;80
74458;SHT31;62896;51.032;3.712;2023-03-14T00:16:03;10.4;80
74458;SHT31;62896;51.032;3.712;2023-03-14T00:19:22;10.4;80
74458;SHT31;62896;51.032;3.712;2023-03-14T00:22:42;10.2;81
74458;SHT31;62896;51.032;3.712;2023-03-14T00:26:03;10.2;81
74458;SHT31;62896;51.032;3.712;2023-03-14T00:29:22;10.2;81
74458;SHT31;62896;51.032;3.712;2023-03-14T00:32:42;10.2;81
74458;SHT31;62896;51.032;3.712;2023-03-14T00:36:03;10.2;81
74458;SHT31;62896;51.032;3.712;2023-03-14T00:39:22;10.2;81
74458;SHT31;62896;51.032;3.712;2023-03-14T00:42:42;10.2;82
74458;SHT31;62896;51.032;3.712;2023-03-14T00:46:02;10.2;82
74458;SHT31;62896;51.032;3.712;2023-03-14T00:49:22;10.2;82
74458;SHT31;62896;51.032;3.712;2023-03-14T00:52:42;10.1;83
74458;SHT31;62896;51.032;3.712;2023-03-14T00:56:03;10.1;83
74458;SHT31;62896;51.032;3.712;2023-03-14T00:59:22;10.1;83
74458;SHT31;62896;51.032;3.712;2023-03-14T01:02:42;10.1;84
74458;SHT31;62896;51.032;3.712;2023-03-14T01:06:06;10.1;84
74458;SHT31;62896;51.032;3.712;2023-03-14T01:09:22;10.1;84
74458;SHT31;62896;51.032;3.712;2023-03-14T01:12:42;10.2;84
74458;SHT31;62896;51.032;3.712;2023-03-14T01:16:02;10.2;84
74458;SHT31;62896;51.032;3.712;2023-03-14T01:19:22;10.2;84
74458;SHT31;62896;51.032;3.712;2023-03-14T01:22:42;10.2;85
74458;SHT31;62896;51.032;3.712;2023-03-14T01:26:02;10.2;85
74458;SHT31;62896;51.032;3.712;2023-03-14T01:29:22;10.2;85
74458;SHT31;62896;51.032;3.712;2023-03-14T01:32:42;10.1;85
74458;SHT31;62896;51.032;3.712;2023-03-14T01:36:02;10.1;85
74458;SHT31;62896;51.032;3.712;2023-03-14T01:39:22;10.1;85
74458;SHT31;62896;51.032;3.712;2023-03-14T01:42:46;10;86
74458;SHT31;62896;51.032;3.712;2023-03-14T01:49:24;10;86
74458;SHT31;62896;51.032;3.712;2023-03-14T01:52:43;10.1;86
74458;SHT31;62896;51.032;3.712;2023-03-14T01:56:02;10.1;86
74458;SHT31;62896;51.032;3.712;2023-03-14T01:59:22;10.1;86
74458;SHT31;62896;51.032;3.712;2023-03-14T02:02:43;10.2;85
74458;SHT31;62896;51.032;3.712;2023-03-14T02:06:03;10.2;85
74458;SHT31;62896;51.032;3.712;2023-03-14T02:09:22;10.2;85
74458;SHT31;62896;51.032;3.712;2023-03-14T02:12:42;10.3;85
74458;SHT31;62896;51.032;3.712;2023-03-14T02:16:02;10.3;85
74458;SHT31;62896;51.032;3.712;2023-03-14T02:19:25;10.3;85
74458;SHT31;62896;51.032;3.712;2023-03-14T02:22:43;10.3;85
74458;SHT31;62896;51.032;3.712;2023-03-14T02:26:03;10.3;85
74458;SHT31;62896;51.032;3.712;2023-03-14T02:29:22;10.3;85
74458;SHT31;62896;51.032;3.712;2023-03-14T02:32:43;10.3;85
74458;SHT31;62896;51.032;3.712;2023-03-14T02:36:03;10.3;85
74458;SHT31;62896;51.032;3.712;2023-03-14T02:39:24;10.3;85
74458;SHT31;62896;51.032;3.712;2023-03-14T02:42:42;10.2;88
74458;SHT31;62896;51.032;3.712;2023-03-14T02:46:02;10.2;88
74458;SHT31;62896;51.032;3.712;2023-03-14T02:49:22;10.2;88
74458;SHT31;62896;51.032;3.712;2023-03-14T02:52:42;10;89
74458;SHT31;62896;51.032;3.712;2023-03-14T02:56:02;10;89
74458;SHT31;62896;51.032;3.712;2023-03-14T02:59:22;10;89
74458;SHT31;62896;51.032;3.712;2023-03-14T03:02:42;9.9;90
74458;SHT31;62896;51.032;3.712;2023-03-14T03:06:02;9.9;90
74458;SHT31;62896;51.032;3.712;2023-03-14T03:09:22;9.9;90
74458;SHT31;62896;51.032;3.712;2023-03-14T03:12:42;9.9;91
74458;SHT31;62896;51.032;3.712;2023-03-14T03:16:02;9.9;91
74458;SHT31;62896;51.032;3.712;2023-03-14T03:19:22;9.9;91
74458;SHT31;62896;51.032;3.712;2023-03-14T03:22:42;9.9;92
74458;SHT31;62896;51.032;3.712;2023-03-14T03:26:02;9.9;92
74458;SHT31;62896;51.032;3.712;2023-03-14T03:29:22;9.9;92
74458;SHT31;62896;51.032;3.712;2023-03-14T03:32:42;10;92
74458;SHT31;62896;51.032;3.712;2023-03-14T03:36:02;10;92
74458;SHT31;62896;51.032;3.712;2023-03-14T03:39:22;10;92
74458;SHT31;62896;51.032;3.712;2023-03-14T03:42:42;10;92
74458;SHT31;62896;51.032;3.712;2023-03-14T03:46:03;10;92
74458;SHT31;62896;51.032;3.712;2023-03-14T03:49:22;10;92
74458;SHT31;62896;51.032;3.712;2023-03-14T03:52:42;10.1;92
74458;SHT31;62896;51.032;3.712;2023-03-14T03:56:02;10.1;92
74458;SHT31;62896;51.032;3.712;2023-03-14T03:59:22;10.1;92
74458;SHT31;62896;51.032;3.712;2023-03-14T04:02:42;10.1;93
74458;SHT31;62896;51.032;3.712;2023-03-14T04:06:04;10.1;93
74458;SHT31;62896;51.032;3.712;2023-03-14T04:09:22;10.1;93
74458;SHT31;62896;51.032;3.712;2023-03-14T04:12:42;10;94
74458;SHT31;62896;51.032;3.712;2023-03-14T04:16:02;10;94
74458;SHT31;62896;51.032;3.712;2023-03-14T04:19:22;10;94
74458;SHT31;62896;51.032;3.712;2023-03-14T04:22:42;9.9;96
74458;SHT31;62896;51.032;3.712;2023-03-14T04:26:02;9.9;96
74458;SHT31;62896;51.032;3.712;2023-03-14T04:29:22;9.9;96
74458;SHT31;62896;51.032;3.712;2023-03-14T04:32:42;9.9;96
74458;SHT31;62896;51.032;3.712;2023-03-14T04:36:02;9.9;96
74458;SHT31;62896;51.032;3.712;2023-03-14T04:39:22;9.9;96
74458;SHT31;62896;51.032;3.712;2023-03-14T04:42:42;10;96
74458;SHT31;62896;51.032;3.712;2023-03-14T04:46:02;10;96
74458;SHT31;62896;51.032;3.712;2023-03-14T04:49:22;10;96
74458;SHT31;62896;51.032;3.712;2023-03-14T04:52:42;10;95
74458;SHT31;62896;51.032;3.712;2023-03-14T04:56:02;10;95
74458;SHT31;62896;51.032;3.712;2023-03-14T04:59:22;10;95
74458;SHT31;62896;51.032;3.712;2023-03-14T05:02:42;10.2;93
74458;SHT31;62896;51.032;3.712;2023-03-14T05:06:02;10.2;93
74458;SHT31;62896;51.032;3.712;2023-03-14T05:09:22;10.2;93
74458;SHT31;62896;51.032;3.712;2023-03-14T05:12:42;10.3;91
74458;SHT31;62896;51.032;3.712;2023-03-14T05:16:03;10.3;91
74458;SHT31;62896;51.032;3.712;2023-03-14T05:19:22;10.3;91
74458;SHT31;62896;51.032;3.712;2023-03-14T05:22:42;10.3;92
74458;SHT31;62896;51.032;3.712;2023-03-14T05:26:02;10.3;92
74458;SHT31;62896;51.032;3.712;2023-03-14T05:29:22;10.3;92
74458;SHT31;62896;51.032;3.712;2023-03-14T05:32:42;10;95
74458;SHT31;62896;51.032;3.712;2023-03-14T05:36:02;10;95
74458;SHT31;62896;51.032;3.712;2023-03-14T05:39:22;10;95
74458;SHT31;62896;51.032;3.712;2023-03-14T05:42:42;9.9;96
74458;SHT31;62896;51.032;3.712;2023-03-14T05:46:02;9.9;96
74458;SHT31;62896;51.032;3.712;2023-03-14T05:49:22;9.9;96
74458;SHT31;62896;51.032;3.712;2023-03-14T05:52:42;9;97
74458;SHT31;62896;51.032;3.712;2023-03-14T05:56:02;9;97
74458;SHT31;62896;51.032;3.712;2023-03-14T05:59:22;9;97
74458;SHT31;62896;51.032;3.712;2023-03-14T06:02:42;8.1;99
74458;SHT31;62896;51.032;3.712;2023-03-14T06:06:02;8.1;99
74458;SHT31;62896;51.032;3.712;2023-03-14T06:09:22;8.1;99
74458;SHT31;62896;51.032;3.712;2023-03-14T06:12:42;7.7;99
74458;SHT31;62896;51.032;3.712;2023-03-14T06:16:02;7.7;99
74458;SHT31;62896;51.032;3.712;2023-03-14T06:19:22;7.7;99
74458;SHT31;62896;51.032;3.712;2023-03-14T06:22:42;7.4;100
74458;SHT31;62896;51.032;3.712;2023-03-14T06:26:02;7.4;100
74458;SHT31;62896;51.032;3.712;2023-03-14T06:29:22;7.4;100
74458;SHT31;62896;51.032;3.712;2023-03-14T06:32:42;7.3;100
74458;SHT31;62896;51.032;3.712;2023-03-14T06:36:02;7.3;100
74458;SHT31;62896;51.032;3.712;2023-03-14T06:39:22;7.3;100
74458;SHT31;62896;51.032;3.712;2023-03-14T06:42:42;7.3;100
74458;SHT31;62896;51.032;3.712;2023-03-14T06:46:02;7.3;100
74458;SHT31;62896;51.032;3.712;2023-03-14T06:49:22;7.3;100
74458;SHT31;62896;51.032;3.712;2023-03-14T06:52:42;7.3;100
74458;SHT31;62896;51.032;3.712;2023-03-14T06:56:02;7.3;100
74458;SHT31;62896;51.032;3.712;2023-03-14T06:59:22;7.3;100
74458;SHT31;62896;51.032;3.712;2023-03-14T07:02:42;7.3;100
74458;SHT31;62896;51.032;3.712;2023-03-14T07:06:02;7.3;100
74458;SHT31;62896;51.032;3.712;2023-03-14T07:09:22;7.3;100
74458;SHT31;62896;51.032;3.712;2023-03-14T07:12:42;7.3;100
74458;SHT31;62896;51.032;3.712;2023-03-14T07:16:02;7.3;100
74458;SHT31;62896;51.032;3.712;2023-03-14T07:19:22;7.3;100
74458;SHT31;62896;51.032;3.712;2023-03-14T07:22:42;7.3;100
74458;SHT31;62896;51.032;3.712;2023-03-14T07:26:02;7.3;100
74458;SHT31;62896;51.032;3.712;2023-03-14T07:29:22;7.3;100
74458;SHT31;62896;51.032;3.712;2023-03-14T07:32:42;7.4;99
74458;SHT31;62896;51.032;3.712;2023-03-14T07:36:03;7.4;99
74458;SHT31;62896;51.032;3.712;2023-03-14T07:39:22;7.4;99
74458;SHT31;62896;51.032;3.712;2023-03-14T07:42:42;7.4;99
74458;SHT31;62896;51.032;3.712;2023-03-14T07:46:02;7.4;99
74458;SHT31;62896;51.032;3.712;2023-03-14T07:49:22;7.4;99
74458;SHT31;62896;51.032;3.712;2023-03-14T07:52:42;7;99
74458;SHT31;62896;51.032;3.712;2023-03-14T07:56:02;7;99
74458;SHT31;62896;51.032;3.712;2023-03-14T07:59:22;7;99
74458;SHT31;62896;51.032;3.712;2023-03-14T08:02:42;6.9;99
74458;SHT31;62896;51.032;3.712;2023-03-14T08:06:02;6.9;99
74458;SHT31;62896;51.032;3.712;2023-03-14T08:09:22;6.9;99
74458;SHT31;62896;51.032;3.712;2023-03-14T08:12:42;6.8;99
74458;SHT31;62896;51.032;3.712;2023-03-14T08:16:03;6.8;99
74458;SHT31;62896;51.032;3.712;2023-03-14T08:19:22;6.8;99
74458;SHT31;62896;51.032;3.712;2023-03-14T08:22:42;6.8;99
74458;SHT31;62896;51.032;3.712;2023-03-14T08:26:02;6.8;99
74458;SHT31;62896;51.032;3.712;2023-03-14T08:29:23;6.8;99
74458;SHT31;62896;51.032;3.712;2023-03-14T08:32:43;6.9;98
74458;SHT31;62896;51.032;3.712;2023-03-14T08:36:02;6.9;98
74458;SHT31;62896;51.032;3.712;2023-03-14T08:39:22;6.9;98
74458;SHT31;62896;51.032;3.712;2023-03-14T08:42:42;6.9;98
74458;SHT31;62896;51.032;3.712;2023-03-14T08:46:02;6.9;98
74458;SHT31;62896;51.032;3.712;2023-03-14T08:49:22;6.9;98
74458;SHT31;62896;51.032;3.712;2023-03-14T08:52:42;6.8;99
74458;SHT31;62896;51.032;3.712;2023-03-14T08:56:03;6.8;99
74458;SHT31;62896;51.032;3.712;2023-03-14T08:59:23;6.8;99
74458;SHT31;62896;51.032;3.712;2023-03-14T09:02:42;6.7;99
74458;SHT31;62896;51.032;3.712;2023-03-14T09:06:03;6.7;99
74458;SHT31;62896;51.032;3.712;2023-03-14T09:09:22;6.7;99
74458;SHT31;62896;51.032;3.712;2023-03-14T09:12:42;6.6;99
74458;SHT31;62896;51.032;3.712;2023-03-14T09:16:03;6.6;99
74458;SHT31;62896;51.032;3.712;2023-03-14T09:19:22;6.6;99
74458;SHT31;62896;51.032;3.712;2023-03-14T09:22:42;6.6;99
74458;SHT31;62896;51.032;3.712;2023-03-14T09:26:02;6.6;99
74458;SHT31;62896;51.032;3.712;2023-03-14T09:29:22;6.6;99
74458;SHT31;62896;51.032;3.712;2023-03-14T09:32:42;6.7;98
74458;SHT31;62896;51.032;3.712;2023-03-14T09:36:03;6.7;98
74458;SHT31;62896;51.032;3.712;2023-03-14T09:39:22;6.7;98
74458;SHT31;62896;51.032;3.712;2023-03-14T09:42:42;6.6;98
74458;SHT31;62896;51.032;3.712;2023-03-14T09:46:03;6.6;98
74458;SHT31;62896;51.032;3.712;2023-03-14T09:49:23;6.6;98
74458;SHT31;62896;51.032;3.712;2023-03-14T09:52:44;6.6;98
74458;SHT31;62896;51.032;3.712;2023-03-14T09:56:03;6.6;98
74458;SHT31;62896;51.032;3.712;2023-03-14T09:59:22;6.6;98
74458;SHT31;62896;51.032;3.712;2023-03-14T10:02:45;6.5;98
74458;SHT31;62896;51.032;3.712;2023-03-14T10:06:03;6.5;98
74458;SHT31;62896;51.032;3.712;2023-03-14T10:09:23;6.5;98
74458;SHT31;62896;51.032;3.712;2023-03-14T10:12:43;6.2;98
74458;SHT31;62896;51.032;3.712;2023-03-14T10:16:03;6.2;98
74458;SHT31;62896;51.032;3.712;2023-03-14T10:19:22;6.2;98
74458;SHT31;62896;51.032;3.712;2023-03-14T10:22:42;6;99
74458;SHT31;62896;51.032;3.712;2023-03-14T10:26:05;6;99
74458;SHT31;62896;51.032;3.712;2023-03-14T10:29:22;6;99
74458;SHT31;62896;51.032;3.712;2023-03-14T10:32:43;6;99
74458;SHT31;62896;51.032;3.712;2023-03-14T10:36:03;6;99
74458;SHT31;62896;51.032;3.712;2023-03-14T10:39:25;6;99
74458;SHT31;62896;51.032;3.712;2023-03-14T10:42:42;6;99
74458;SHT31;62896;51.032;3.712;2023-03-14T10:46:05;6;99
74458;SHT31;62896;51.032;3.712;2023-03-14T10:49:25;6;99
74458;SHT31;62896;51.032;3.712;2023-03-14T10:52:47;5.9;99
74458;SHT31;62896;51.032;3.712;2023-03-14T10:56:03;5.9;99
74458;SHT31;62896;51.032;3.712;2023-03-14T10:59:22;5.9;99
74458;SHT31;62896;51.032;3.712;2023-03-14T11:02:47;5.9;100
74458;SHT31;62896;51.032;3.712;2023-03-14T11:06:04;5.9;100
74458;SHT31;62896;51.032;3.712;2023-03-14T11:09:23;5.9;100
74458;SHT31;62896;51.032;3.712;2023-03-14T11:12:45;5.9;100
74458;SHT31;62896;51.032;3.712;2023-03-14T11:16:04;5.9;100
74458;SHT31;62896;51.032;3.712;2023-03-14T11:19:27;5.9;100
74458;SHT31;62896;51.032;3.712;2023-03-14T11:22:43;6.3;99
74458;SHT31;62896;51.032;3.712;2023-03-14T11:26:06;6.3;99
74458;SHT31;62896;51.032;3.712;2023-03-14T11:29:24;6.3;99
74458;SHT31;62896;51.032;3.712;2023-03-14T11:32:44;6.8;99
74458;SHT31;62896;51.032;3.712;2023-03-14T11:36:03;6.8;99
74458;SHT31;62896;51.032;3.712;2023-03-14T11:39:23;6.8;99
74458;SHT31;62896;51.032;3.712;2023-03-14T11:42:43;6.9;99
74458;SHT31;62896;51.032;3.712;2023-03-14T11:46:04;6.9;99
74458;SHT31;62896;51.032;3.712;2023-03-14T11:49:25;6.9;99
74458;SHT31;62896;51.032;3.712;2023-03-14T11:52:44;7;99
74458;SHT31;62896;51.032;3.712;2023-03-14T11:56:03;7;99
74458;SHT31;62896;51.032;3.712;2023-03-14T11:59:24;7;99
74458;SHT31;62896;51.032;3.712;2023-03-14T12:02:45;6.9;97
74458;SHT31;62896;51.032;3.712;2023-03-14T12:06:05;6.9;97
74458;SHT31;62896;51.032;3.712;2023-03-14T12:09:23;6.9;97
74458;SHT31;62896;51.032;3.712;2023-03-14T12:12:43;6.8;97
74458;SHT31;62896;51.032;3.712;2023-03-14T12:16:04;6.8;97
74458;SHT31;62896;51.032;3.712;2023-03-14T12:19:28;6.8;97
74458;SHT31;62896;51.032;3.712;2023-03-14T12:22:43;6.7;96
74458;SHT31;62896;51.032;3.712;2023-03-14T12:26:20;6.7;96
74458;SHT31;62896;51.032;3.712;2023-03-14T12:29:23;6.7;96
74458;SHT31;62896;51.032;3.712;2023-03-14T12:32:43;6.6;97
74458;SHT31;62896;51.032;3.712;2023-03-14T12:36:03;6.6;97
74458;SHT31;62896;51.032;3.712;2023-03-14T12:39:25;6.6;97
74458;SHT31;62896;51.032;3.712;2023-03-14T12:42:45;6.8;98
74458;SHT31;62896;51.032;3.712;2023-03-14T12:46:06;6.8;98
74458;SHT31;62896;51.032;3.712;2023-03-14T12:49:25;6.8;98
74458;SHT31;62896;51.032;3.712;2023-03-14T12:52:44;6.5;96
74458;SHT31;62896;51.032;3.712;2023-03-14T12:56:06;6.5;96
74458;SHT31;62896;51.032;3.712;2023-03-14T12:59:28;6.5;96
74458;SHT31;62896;51.032;3.712;2023-03-14T13:02:43;5.7;96
74458;SHT31;62896;51.032;3.712;2023-03-14T13:06:03;5.7;96
74458;SHT31;62896;51.032;3.712;2023-03-14T13:09:54;5.7;96
74458;SHT31;62896;51.032;3.712;2023-03-14T13:12:44;5.5;95
74458;SHT31;62896;51.032;3.712;2023-03-14T13:16:03;5.5;95
74458;SHT31;62896;51.032;3.712;2023-03-14T13:19:23;5.5;95
74458;SHT31;62896;51.032;3.712;2023-03-14T13:22:45;6;93
74458;SHT31;62896;51.032;3.712;2023-03-14T13:26:03;6;93
74458;SHT31;62896;51.032;3.712;2023-03-14T13:29:23;6;93
74458;SHT31;62896;51.032;3.712;2023-03-14T13:32:43;6.3;93
74458;SHT31;62896;51.032;3.712;2023-03-14T13:36:04;6.3;93
74458;SHT31;62896;51.032;3.712;2023-03-14T13:39:23;6.3;93
74458;SHT31;62896;51.032;3.712;2023-03-14T13:42:43;6.9;91
74458;SHT31;62896;51.032;3.712;2023-03-14T13:46:03;6.9;91
74458;SHT31;62896;51.032;3.712;2023-03-14T13:49:23;6.9;91
74458;SHT31;62896;51.032;3.712;2023-03-14T13:52:43;7.1;83
74458;SHT31;62896;51.032;3.712;2023-03-14T13:56:03;7.1;83
74458;SHT31;62896;51.032;3.712;2023-03-14T13:59:23;7.1;83
74458;SHT31;62896;51.032;3.712;2023-03-14T14:02:43;6.5;73
74458;SHT31;62896;51.032;3.712;2023-03-14T14:06:03;6.5;73
74458;SHT31;62896;51.032;3.712;2023-03-14T14:09:23;6.5;73
74458;SHT31;62896;51.032;3.712;2023-03-14T14:12:43;6.1;75
74458;SHT31;62896;51.032;3.712;2023-03-14T14:16:03;6.1;75
74458;SHT31;62896;51.032;3.712;2023-03-14T14:19:23;6.1;75
74458;SHT31;62896;51.032;3.712;2023-03-14T14:22:43;6.2;73
74458;SHT31;62896;51.032;3.712;2023-03-14T14:26:03;6.2;73
74458;SHT31;62896;51.032;3.712;2023-03-14T14:29:25;6.2;73
74458;SHT31;62896;51.032;3.712;2023-03-14T14:32:43;6.6;73
74458;SHT31;62896;51.032;3.712;2023-03-14T14:36:03;6.6;73
74458;SHT31;62896;51.032;3.712;2023-03-14T14:39:23;6.6;73
74458;SHT31;62896;51.032;3.712;2023-03-14T14:42:43;7;61
74458;SHT31;62896;51.032;3.712;2023-03-14T14:46:05;7;61
74458;SHT31;62896;51.032;3.712;2023-03-14T14:49:27;7;61
74458;SHT31;62896;51.032;3.712;2023-03-14T14:52:43;7.1;57
74458;SHT31;62896;51.032;3.712;2023-03-14T14:56:03;7.1;57
74458;SHT31;62896;51.032;3.712;2023-03-14T14:59:24;7.1;57
74458;SHT31;62896;51.032;3.712;2023-03-14T15:02:44;7.1;58
74458;SHT31;62896;51.032;3.712;2023-03-14T15:06:03;7.1;58
74458;SHT31;62896;51.032;3.712;2023-03-14T15:09:23;7.1;58
74458;SHT31;62896;51.032;3.712;2023-03-14T15:12:43;7;59
74458;SHT31;62896;51.032;3.712;2023-03-14T15:16:04;7;59
74458;SHT31;62896;51.032;3.712;2023-03-14T15:19:24;7;59
74458;SHT31;62896;51.032;3.712;2023-03-14T15:22:43;7;60
74458;SHT31;62896;51.032;3.712;2023-03-14T15:26:05;7;60
74458;SHT31;62896;51.032;3.712;2023-03-14T15:29:23;7;60
74458;SHT31;62896;51.032;3.712;2023-03-14T15:32:43;7.1;63
74458;SHT31;62896;51.032;3.712;2023-03-14T15:36:13;7.1;63
74458;SHT31;62896;51.032;3.712;2023-03-14T15:39:23;7.1;63
74458;SHT31;62896;51.032;3.712;2023-03-14T15:42:43;7.2;64
74458;SHT31;62896;51.032;3.712;2023-03-14T15:46:03;7.2;64
74458;SHT31;62896;51.032;3.712;2023-03-14T15:49:23;7.2;64
74458;SHT31;62896;51.032;3.712;2023-03-14T15:52:43;7.3;66
74458;SHT31;62896;51.032;3.712;2023-03-14T15:56:03;7.3;66
74458;SHT31;62896;51.032;3.712;2023-03-14T15:59:23;7.3;66
74458;SHT31;62896;51.032;3.712;2023-03-14T16:02:43;7.5;64
74458;SHT31;62896;51.032;3.712;2023-03-14T16:06:03;7.5;64
74458;SHT31;62896;51.032;3.712;2023-03-14T16:09:23;7.5;64
74458;SHT31;62896;51.032;3.712;2023-03-14T16:12:43;7.7;62
74458;SHT31;62896;51.032;3.712;2023-03-14T16:16:03;7.7;62
74458;SHT31;62896;51.032;3.712;2023-03-14T16:19:23;7.7;62
74458;SHT31;62896;51.032;3.712;2023-03-14T16:22:43;7.4;61
74458;SHT31;62896;51.032;3.712;2023-03-14T16:26:03;7.4;61
74458;SHT31;62896;51.032;3.712;2023-03-14T16:29:23;7.4;61
74458;SHT31;62896;51.032;3.712;2023-03-14T16:32:44;7.3;59
74458;SHT31;62896;51.032;3.712;2023-03-14T16:36:03;7.3;59
74458;SHT31;62896;51.032;3.712;2023-03-14T16:39:23;7.3;59
74458;SHT31;62896;51.032;3.712;2023-03-14T16:42:43;7.3;58
74458;SHT31;62896;51.032;3.712;2023-03-14T16:46:04;7.3;58
74458;SHT31;62896;51.032;3.712;2023-03-14T16:49:23;7.3;58
74458;SHT31;62896;51.032;3.712;2023-03-14T16:52:43;7.3;61
74458;SHT31;62896;51.032;3.712;2023-03-14T16:56:03;7.3;61
74458;SHT31;62896;51.032;3.712;2023-03-14T16:59:23;7.3;61
74458;SHT31;62896;51.032;3.712;2023-03-14T17:02:43;7.4;64
74458;SHT31;62896;51.032;3.712;2023-03-14T17:06:03;7.4;64
74458;SHT31;62896;51.032;3.712;2023-03-14T17:09:23;7.4;64
74458;SHT31;62896;51.032;3.712;2023-03-14T17:12:43;7.1;71
74458;SHT31;62896;51.032;3.712;2023-03-14T17:16:03;7.1;71
74458;SHT31;62896;51.032;3.712;2023-03-14T17:19:23;7.1;71
74458;SHT31;62896;51.032;3.712;2023-03-14T17:22:43;6.9;72
74458;SHT31;62896;51.032;3.712;2023-03-14T17:26:03;6.9;72
74458;SHT31;62896;51.032;3.712;2023-03-14T17:29:23;6.9;72
74458;SHT31;62896;51.032;3.712;2023-03-14T17:32:43;6.9;72
74458;SHT31;62896;51.032;3.712;2023-03-14T17:36:03;6.9;72
74458;SHT31;62896;51.032;3.712;2023-03-14T17:39:23;6.9;72
74458;SHT31;62896;51.032;3.712;2023-03-14T17:42:43;6.6;73
74458;SHT31;62896;51.032;3.712;2023-03-14T17:46:04;6.6;73
74458;SHT31;62896;51.032;3.712;2023-03-14T17:49:23;6.6;73
74458;SHT31;62896;51.032;3.712;2023-03-14T17:52:43;6.4;75
74458;SHT31;62896;51.032;3.712;2023-03-14T17:56:03;6.4;75
74458;SHT31;62896;51.032;3.712;2023-03-14T17:59:23;6.4;75
74458;SHT31;62896;51.032;3.712;2023-03-14T18:02:43;6.1;77
74458;SHT31;62896;51.032;3.712;2023-03-14T18:06:03;6.1;77
74458;SHT31;62896;51.032;3.712;2023-03-14T18:09:23;6.1;77
74458;SHT31;62896;51.032;3.712;2023-03-14T18:12:43;5.9;78
74458;SHT31;62896;51.032;3.712;2023-03-14T18:16:03;5.9;78
74458;SHT31;62896;51.032;3.712;2023-03-14T18:19:23;5.9;78
74458;SHT31;62896;51.032;3.712;2023-03-14T18:22:43;5.8;79
74458;SHT31;62896;51.032;3.712;2023-03-14T18:26:03;5.8;79
74458;SHT31;62896;51.032;3.712;2023-03-14T18:29:23;5.8;79
74458;SHT31;62896;51.032;3.712;2023-03-14T18:32:43;5.6;80
74458;SHT31;62896;51.032;3.712;2023-03-14T18:36:03;5.6;80
74458;SHT31;62896;51.032;3.712;2023-03-14T18:39:23;5.6;80
74458;SHT31;62896;51.032;3.712;2023-03-14T18:42:43;5.5;81
74458;SHT31;62896;51.032;3.712;2023-03-14T18:46:03;5.5;81
74458;SHT31;62896;51.032;3.712;2023-03-14T18:49:23;5.5;81
74458;SHT31;62896;51.032;3.712;2023-03-14T18:52:43;5.3;82
74458;SHT31;62896;51.032;3.712;2023-03-14T18:56:03;5.3;82
74458;SHT31;62896;51.032;3.712;2023-03-14T18:59:23;5.3;82
74458;SHT31;62896;51.032;3.712;2023-03-14T19:02:43;5.2;83
74458;SHT31;62896;51.032;3.712;2023-03-14T19:06:03;5.2;83
74458;SHT31;62896;51.032;3.712;2023-03-14T19:09:23;5.2;83
74458;SHT31;62896;51.032;3.712;2023-03-14T19:12:43;5.2;83
74458;SHT31;62896;51.032;3.712;2023-03-14T19:16:03;5.2;83
74458;SHT31;62896;51.032;3.712;2023-03-14T19:19:23;5.2;83
74458;SHT31;62896;51.032;3.712;2023-03-14T19:22:43;5.2;83
74458;SHT31;62896;51.032;3.712;2023-03-14T19:26:03;5.2;83
74458;SHT31;62896;51.032;3.712;2023-03-14T19:29:23;5.2;83
74458;SHT31;62896;51.032;3.712;2023-03-14T19:32:43;5.2;83
74458;SHT31;62896;51.032;3.712;2023-03-14T19:36:03;5.2;83
74458;SHT31;62896;51.032;3.712;2023-03-14T19:39:23;5.2;83
74458;SHT31;62896;51.032;3.712;2023-03-14T19:42:43;5.2;85
74458;SHT31;62896;51.032;3.712;2023-03-14T19:46:03;5.2;85
74458;SHT31;62896;51.032;3.712;2023-03-14T19:49:23;5.2;85
74458;SHT31;62896;51.032;3.712;2023-03-14T19:52:43;5;87
74458;SHT31;62896;51.032;3.712;2023-03-14T19:56:03;5;87
74458;SHT31;62896;51.032;3.712;2023-03-14T19:59:23;5;87
74458;SHT31;62896;51.032;3.712;2023-03-14T20:02:43;4.8;87
74458;SHT31;62896;51.032;3.712;2023-03-14T20:06:03;4.8;87
74458;SHT31;62896;51.032;3.712;2023-03-14T20:09:23;4.8;87
74458;SHT31;62896;51.032;3.712;2023-03-14T20:12:43;4.5;87
74458;SHT31;62896;51.032;3.712;2023-03-14T20:16:03;4.5;87
74458;SHT31;62896;51.032;3.712;2023-03-14T20:19:23;4.5;87
74458;SHT31;62896;51.032;3.712;2023-03-14T20:22:43;4.3;86
74458;SHT31;62896;51.032;3.712;2023-03-14T20:26:03;4.3;86
74458;SHT31;62896;51.032;3.712;2023-03-14T20:29:23;4.3;86
74458;SHT31;62896;51.032;3.712;2023-03-14T20:32:43;4.3;87
74458;SHT31;62896;51.032;3.712;2023-03-14T20:36:03;4.3;87
74458;SHT31;62896;51.032;3.712;2023-03-14T20:39:23;4.3;87
74458;SHT31;62896;51.032;3.712;2023-03-14T20:42:43;4.2;88
74458;SHT31;62896;51.032;3.712;2023-03-14T20:46:03;4.2;88
74458;SHT31;62896;51.032;3.712;2023-03-14T20:49:23;4.2;88
74458;SHT31;62896;51.032;3.712;2023-03-14T20:52:43;4.2;88
74458;SHT31;62896;51.032;3.712;2023-03-14T20:56:03;4.2;88
74458;SHT31;62896;51.032;3.712;2023-03-14T20:59:23;4.2;88
74458;SHT31;62896;51.032;3.712;2023-03-14T21:02:43;4.2;88
74458;SHT31;62896;51.032;3.712;2023-03-14T21:06:03;4.2;88
74458;SHT31;62896;51.032;3.712;2023-03-14T21:09:23;4.2;88
74458;SHT31;62896;51.032;3.712;2023-03-14T21:12:43;4.2;89
74458;SHT31;62896;51.032;3.712;2023-03-14T21:16:03;4.2;89
74458;SHT31;62896;51.032;3.712;2023-03-14T21:19:23;4.2;89
74458;SHT31;62896;51.032;3.712;2023-03-14T21:22:43;4.2;89
74458;SHT31;62896;51.032;3.712;2023-03-14T21:26:03;4.2;89
74458;SHT31;62896;51.032;3.712;2023-03-14T21:29:23;4.2;89
74458;SHT31;62896;51.032;3.712;2023-03-14T21:32:43;4.3;88
74458;SHT31;62896;51.032;3.712;2023-03-14T21:36:03;4.3;88
74458;SHT31;62896;51.032;3.712;2023-03-14T21:39:23;4.3;88
74458;SHT31;62896;51.032;3.712;2023-03-14T21:42:43;4.4;88
74458;SHT31;62896;51.032;3.712;2023-03-14T21:46:03;4.4;88
74458;SHT31;62896;51.032;3.712;2023-03-14T21:49:23;4.4;88
74458;SHT31;62896;51.032;3.712;2023-03-14T21:52:43;4.4;87
74458;SHT31;62896;51.032;3.712;2023-03-14T21:56:03;4.4;87
74458;SHT31;62896;51.032;3.712;2023-03-14T21:59:23;4.4;87
74458;SHT31;62896;51.032;3.712;2023-03-14T22:02:43;4.6;87
74458;SHT31;62896;51.032;3.712;2023-03-14T22:06:03;4.6;87
74458;SHT31;62896;51.032;3.712;2023-03-14T22:09:23;4.6;87
74458;SHT31;62896;51.032;3.712;2023-03-14T22:12:43;4.7;88
74458;SHT31;62896;51.032;3.712;2023-03-14T22:16:03;4.7;88
74458;SHT31;62896;51.032;3.712;2023-03-14T22:19:23;4.7;88
74458;SHT31;62896;51.032;3.712;2023-03-14T22:22:43;4.7;87
74458;SHT31;62896;51.032;3.712;2023-03-14T22:26:03;4.7;87
74458;SHT31;62896;51.032;3.712;2023-03-14T22:29:23;4.7;87
74458;SHT31;62896;51.032;3.712;2023-03-14T22:32:43;4.8;86
74458;SHT31;62896;51.032;3.712;2023-03-14T22:36:03;4.8;86
74458;SHT31;62896;51.032;3.712;2023-03-14T22:39:23;4.8;86
74458;SHT31;62896;51.032;3.712;2023-03-14T22:42:43;4.9;87
74458;SHT31;62896;51.032;3.712;2023-03-14T22:46:04;4.9;87
74458;SHT31;62896;51.032;3.712;2023-03-14T22:49:23;4.9;87
74458;SHT31;62896;51.032;3.712;2023-03-14T22:52:43;4.8;88
74458;SHT31;62896;51.032;3.712;2023-03-14T22:56:04;4.8;88